sensor_id;sensor_type;location;lat;lon;timestamp;P1;durP1;ratioP1;P2;durP2;ratioP2
75311;SDS011;63906;55.686;37.532;2023-10-08T00:00:49;0.60;;;0.00;;
75311;SDS011;63906;55.686;37.532;2023-10-08T00:05:49;0.93;;;0.03;;
75311;SDS011;63906;55.686;37.532;2023-10-08T00:10:50;0.00;;;0.00;;
75311;SDS011;63906;55.686;37.532;2023-10-08T00:15:51;0.90;;;0.10;;
75311;SDS011;63906;55.686;37.532;2023-10-08T00:20:54;1.50;;;0.00;;
75311;SDS011;63906;55.686;37.532;2023-10-08T00:25:58;0.40;;;0.20;;
75311;SDS011;63906;55.686;37.532;2023-10-08T00:31:04;0.10;;;0.00;;
75311;SDS011;63906;55.686;37.532;2023-10-08T00:36:13;3.70;;;0.30;;
75311;SDS011;63906;55.686;37.532;2023-10-08T00:41:20;0.75;;;0.10;;
75311;SDS011;63906;55.686;37.532;2023-10-08T00:46:28;0.60;;;0.10;;
75311;SDS011;63906;55.686;37.532;2023-10-08T00:51:36;0.30;;;0.00;;
75311;SDS011;63906;55.686;37.532;2023-10-08T00:56:41;0.00;;;0.00;;
75311;SDS011;63906;55.686;37.532;2023-10-08T01:01:57;1.00;;;0.00;;
75311;SDS011;63906;55.686;37.532;2023-10-08T01:12:18;0.38;;;0.10;;
75311;SDS011;63906;55.686;37.532;2023-10-08T01:17:23;0.20;;;0.00;;
75311;SDS011;63906;55.686;37.532;2023-10-08T01:22:25;0.88;;;0.10;;
75311;SDS011;63906;55.686;37.532;2023-10-08T01:27:30;0.13;;;0.00;;
75311;SDS011;63906;55.686;37.532;2023-10-08T01:32:34;0.05;;;0.00;;
75311;SDS011;63906;55.686;37.532;2023-10-08T01:37:35;0.10;;;0.00;;
75311;SDS011;63906;55.686;37.532;2023-10-08T01:42:36;0.10;;;0.00;;
75311;SDS011;63906;55.686;37.532;2023-10-08T01:47:39;0.65;;;0.00;;
75311;SDS011;63906;55.686;37.532;2023-10-08T01:52:39;0.63;;;0.10;;
75311;SDS011;63906;55.686;37.532;2023-10-08T01:57:41;0.40;;;0.22;;
75311;SDS011;63906;55.686;37.532;2023-10-08T02:02:43;0.13;;;0.10;;
75311;SDS011;63906;55.686;37.532;2023-10-08T02:07:43;0.47;;;0.13;;
75311;SDS011;63906;55.686;37.532;2023-10-08T02:12:44;0.40;;;0.03;;
75311;SDS011;63906;55.686;37.532;2023-10-08T02:17:45;0.17;;;0.10;;
75311;SDS011;63906;55.686;37.532;2023-10-08T02:22:46;0.30;;;0.10;;
75311;SDS011;63906;55.686;37.532;2023-10-08T02:27:46;0.08;;;0.00;;
75311;SDS011;63906;55.686;37.532;2023-10-08T02:32:48;1.95;;;0.25;;
75311;SDS011;63906;55.686;37.532;2023-10-08T02:37:49;0.65;;;0.10;;
75311;SDS011;63906;55.686;37.532;2023-10-08T02:42:50;0.00;;;0.00;;
75311;SDS011;63906;55.686;37.532;2023-10-08T02:47:50;0.53;;;0.10;;
75311;SDS011;63906;55.686;37.532;2023-10-08T02:52:52;0.05;;;0.00;;
75311;SDS011;63906;55.686;37.532;2023-10-08T02:57:54;2.88;;;0.40;;
75311;SDS011;63906;55.686;37.532;2023-10-08T03:03:00;1.67;;;0.10;;
75311;SDS011;63906;55.686;37.532;2023-10-08T03:08:05;0.63;;;0.20;;
75311;SDS011;63906;55.686;37.532;2023-10-08T03:13:10;0.38;;;0.10;;
75311;SDS011;63906;55.686;37.532;2023-10-08T03:18:13;0.13;;;0.10;;
75311;SDS011;63906;55.686;37.532;2023-10-08T03:23:17;0.10;;;0.10;;
75311;SDS011;63906;55.686;37.532;2023-10-08T03:28:25;0.85;;;0.20;;
75311;SDS011;63906;55.686;37.532;2023-10-08T03:33:28;2.17;;;0.30;;
75311;SDS011;63906;55.686;37.532;2023-10-08T03:38:34;0.30;;;0.10;;
75311;SDS011;63906;55.686;37.532;2023-10-08T03:43:45;0.38;;;0.05;;
75311;SDS011;63906;55.686;37.532;2023-10-08T03:49:15;0.65;;;0.30;;
75311;SDS011;63906;55.686;37.532;2023-10-08T03:54:25;0.20;;;0.10;;
75311;SDS011;63906;55.686;37.532;2023-10-08T03:59:35;0.35;;;0.20;;
75311;SDS011;63906;55.686;37.532;2023-10-08T04:04:41;0.40;;;0.20;;
75311;SDS011;63906;55.686;37.532;2023-10-08T04:10:13;1.45;;;0.30;;
75311;SDS011;63906;55.686;37.532;2023-10-08T04:15:37;0.60;;;0.28;;
75311;SDS011;63906;55.686;37.532;2023-10-08T04:20:40;0.40;;;0.15;;
75311;SDS011;63906;55.686;37.532;2023-10-08T04:25:59;2.53;;;0.20;;
75311;SDS011;63906;55.686;37.532;2023-10-08T04:31:00;0.52;;;0.10;;
75311;SDS011;63906;55.686;37.532;2023-10-08T04:36:01;1.65;;;0.15;;
75311;SDS011;63906;55.686;37.532;2023-10-08T04:41:02;0.85;;;0.10;;
75311;SDS011;63906;55.686;37.532;2023-10-08T04:46:08;0.88;;;0.10;;
75311;SDS011;63906;55.686;37.532;2023-10-08T04:51:27;0.75;;;0.20;;
75311;SDS011;63906;55.686;37.532;2023-10-08T04:56:34;0.20;;;0.10;;
75311;SDS011;63906;55.686;37.532;2023-10-08T05:01:35;0.30;;;0.10;;
75311;SDS011;63906;55.686;37.532;2023-10-08T05:06:47;0.50;;;0.20;;
75311;SDS011;63906;55.686;37.532;2023-10-08T05:11:49;1.20;;;0.20;;
75311;SDS011;63906;55.686;37.532;2023-10-08T05:16:51;0.38;;;0.20;;
75311;SDS011;63906;55.686;37.532;2023-10-08T05:22:09;0.57;;;0.15;;
75311;SDS011;63906;55.686;37.532;2023-10-08T05:27:23;0.80;;;0.20;;
75311;SDS011;63906;55.686;37.532;2023-10-08T05:32:38;0.35;;;0.20;;
75311;SDS011;63906;55.686;37.532;2023-10-08T05:37:46;0.20;;;0.10;;
75311;SDS011;63906;55.686;37.532;2023-10-08T05:42:52;0.35;;;0.10;;
75311;SDS011;63906;55.686;37.532;2023-10-08T05:48:01;0.68;;;0.20;;
75311;SDS011;63906;55.686;37.532;2023-10-08T05:53:13;0.10;;;0.00;;
75311;SDS011;63906;55.686;37.532;2023-10-08T05:58:29;1.00;;;0.30;;
75311;SDS011;63906;55.686;37.532;2023-10-08T06:03:45;0.70;;;0.20;;
75311;SDS011;63906;55.686;37.532;2023-10-08T06:09:00;0.82;;;0.10;;
75311;SDS011;63906;55.686;37.532;2023-10-08T06:14:21;0.47;;;0.13;;
75311;SDS011;63906;55.686;37.532;2023-10-08T06:19:42;0.15;;;0.10;;
75311;SDS011;63906;55.686;37.532;2023-10-08T06:24:43;0.98;;;0.22;;
75311;SDS011;63906;55.686;37.532;2023-10-08T06:29:43;4.20;;;0.30;;
75311;SDS011;63906;55.686;37.532;2023-10-08T06:34:44;0.75;;;0.20;;
75311;SDS011;63906;55.686;37.532;2023-10-08T06:39:45;0.50;;;0.20;;
75311;SDS011;63906;55.686;37.532;2023-10-08T06:44:48;0.65;;;0.13;;
75311;SDS011;63906;55.686;37.532;2023-10-08T06:49:49;0.50;;;0.20;;
75311;SDS011;63906;55.686;37.532;2023-10-08T06:54:51;0.40;;;0.20;;
75311;SDS011;63906;55.686;37.532;2023-10-08T06:59:53;0.98;;;0.10;;
75311;SDS011;63906;55.686;37.532;2023-10-08T07:04:53;2.37;;;0.30;;
75311;SDS011;63906;55.686;37.532;2023-10-08T07:09:54;1.67;;;0.20;;
75311;SDS011;63906;55.686;37.532;2023-10-08T07:14:57;0.38;;;0.10;;
75311;SDS011;63906;55.686;37.532;2023-10-08T07:19:58;0.73;;;0.40;;
75311;SDS011;63906;55.686;37.532;2023-10-08T07:24:59;1.50;;;0.30;;
75311;SDS011;63906;55.686;37.532;2023-10-08T07:29:59;0.80;;;0.30;;
75311;SDS011;63906;55.686;37.532;2023-10-08T07:35:02;0.35;;;0.20;;
75311;SDS011;63906;55.686;37.532;2023-10-08T07:40:23;0.65;;;0.20;;
75311;SDS011;63906;55.686;37.532;2023-10-08T07:45:29;0.52;;;0.10;;
75311;SDS011;63906;55.686;37.532;2023-10-08T07:50:29;0.93;;;0.20;;
75311;SDS011;63906;55.686;37.532;2023-10-08T07:55:30;1.40;;;0.38;;
75311;SDS011;63906;55.686;37.532;2023-10-08T08:00:34;0.40;;;0.20;;
75311;SDS011;63906;55.686;37.532;2023-10-08T08:05:38;1.42;;;0.28;;
75311;SDS011;63906;55.686;37.532;2023-10-08T08:10:40;0.30;;;0.10;;
75311;SDS011;63906;55.686;37.532;2023-10-08T08:15:43;1.55;;;0.40;;
75311;SDS011;63906;55.686;37.532;2023-10-08T08:20:51;1.05;;;0.10;;
75311;SDS011;63906;55.686;37.532;2023-10-08T08:25:51;1.85;;;0.20;;
75311;SDS011;63906;55.686;37.532;2023-10-08T08:31:03;0.95;;;0.22;;
75311;SDS011;63906;55.686;37.532;2023-10-08T08:36:05;1.08;;;0.15;;
75311;SDS011;63906;55.686;37.532;2023-10-08T08:41:06;1.10;;;0.30;;
75311;SDS011;63906;55.686;37.532;2023-10-08T08:46:07;0.40;;;0.40;;
75311;SDS011;63906;55.686;37.532;2023-10-08T08:51:10;0.47;;;0.20;;
75311;SDS011;63906;55.686;37.532;2023-10-08T09:01:16;0.50;;;0.20;;
75311;SDS011;63906;55.686;37.532;2023-10-08T09:06:18;1.05;;;0.10;;
75311;SDS011;63906;55.686;37.532;2023-10-08T09:11:19;1.15;;;0.30;;
75311;SDS011;63906;55.686;37.532;2023-10-08T09:16:20;1.48;;;0.30;;
75311;SDS011;63906;55.686;37.532;2023-10-08T09:21:20;0.77;;;0.30;;
75311;SDS011;63906;55.686;37.532;2023-10-08T09:26:23;0.60;;;0.22;;
75311;SDS011;63906;55.686;37.532;2023-10-08T09:31:25;1.77;;;0.22;;
75311;SDS011;63906;55.686;37.532;2023-10-08T09:36:25;0.80;;;0.10;;
75311;SDS011;63906;55.686;37.532;2023-10-08T09:41:32;0.50;;;0.30;;
75311;SDS011;63906;55.686;37.532;2023-10-08T09:46:33;0.95;;;0.22;;
75311;SDS011;63906;55.686;37.532;2023-10-08T09:51:39;0.65;;;0.20;;
75311;SDS011;63906;55.686;37.532;2023-10-08T09:56:40;3.35;;;0.20;;
75311;SDS011;63906;55.686;37.532;2023-10-08T10:01:43;0.75;;;0.25;;
75311;SDS011;63906;55.686;37.532;2023-10-08T10:06:44;0.15;;;0.10;;
75311;SDS011;63906;55.686;37.532;2023-10-08T10:11:47;1.95;;;0.25;;
75311;SDS011;63906;55.686;37.532;2023-10-08T10:17:08;0.50;;;0.30;;
75311;SDS011;63906;55.686;37.532;2023-10-08T10:22:13;0.65;;;0.20;;
75311;SDS011;63906;55.686;37.532;2023-10-08T10:27:17;0.80;;;0.28;;
75311;SDS011;63906;55.686;37.532;2023-10-08T10:32:18;1.23;;;0.20;;
75311;SDS011;63906;55.686;37.532;2023-10-08T10:37:19;0.65;;;0.30;;
75311;SDS011;63906;55.686;37.532;2023-10-08T10:42:19;1.08;;;0.40;;
75311;SDS011;63906;55.686;37.532;2023-10-08T10:47:21;0.52;;;0.20;;
75311;SDS011;63906;55.686;37.532;2023-10-08T10:52:22;0.40;;;0.20;;
75311;SDS011;63906;55.686;37.532;2023-10-08T10:57:48;0.45;;;0.22;;
75311;SDS011;63906;55.686;37.532;2023-10-08T11:02:56;0.80;;;0.20;;
75311;SDS011;63906;55.686;37.532;2023-10-08T11:08:00;0.82;;;0.20;;
75311;SDS011;63906;55.686;37.532;2023-10-08T11:13:08;1.33;;;0.20;;
75311;SDS011;63906;55.686;37.532;2023-10-08T11:18:22;0.70;;;0.30;;
75311;SDS011;63906;55.686;37.532;2023-10-08T11:23:30;3.33;;;0.50;;
75311;SDS011;63906;55.686;37.532;2023-10-08T11:28:39;0.63;;;0.30;;
75311;SDS011;63906;55.686;37.532;2023-10-08T11:33:43;0.68;;;0.28;;
75311;SDS011;63906;55.686;37.532;2023-10-08T11:38:56;0.65;;;0.52;;
75311;SDS011;63906;55.686;37.532;2023-10-08T11:44:08;0.35;;;0.25;;
75311;SDS011;63906;55.686;37.532;2023-10-08T11:49:13;1.30;;;0.50;;
75311;SDS011;63906;55.686;37.532;2023-10-08T11:54:25;0.55;;;0.35;;
75311;SDS011;63906;55.686;37.532;2023-10-08T11:59:26;1.17;;;0.50;;
75311;SDS011;63906;55.686;37.532;2023-10-08T12:04:27;0.63;;;0.37;;
75311;SDS011;63906;55.686;37.532;2023-10-08T12:09:29;2.33;;;0.40;;
75311;SDS011;63906;55.686;37.532;2023-10-08T12:14:30;1.05;;;0.40;;
75311;SDS011;63906;55.686;37.532;2023-10-08T12:19:31;0.63;;;0.43;;
75311;SDS011;63906;55.686;37.532;2023-10-08T12:24:32;2.08;;;0.75;;
75311;SDS011;63906;55.686;37.532;2023-10-08T12:29:33;0.55;;;0.28;;
75311;SDS011;63906;55.686;37.532;2023-10-08T12:34:35;1.48;;;0.40;;
75311;SDS011;63906;55.686;37.532;2023-10-08T12:39:35;1.25;;;0.63;;
75311;SDS011;63906;55.686;37.532;2023-10-08T12:44:45;0.90;;;0.50;;
75311;SDS011;63906;55.686;37.532;2023-10-08T12:49:48;0.50;;;0.32;;
75311;SDS011;63906;55.686;37.532;2023-10-08T12:54:48;0.90;;;0.40;;
75311;SDS011;63906;55.686;37.532;2023-10-08T12:59:49;1.13;;;0.30;;
75311;SDS011;63906;55.686;37.532;2023-10-08T13:04:51;1.08;;;0.52;;
75311;SDS011;63906;55.686;37.532;2023-10-08T13:14:55;1.00;;;0.50;;
75311;SDS011;63906;55.686;37.532;2023-10-08T13:19:55;0.50;;;0.40;;
75311;SDS011;63906;55.686;37.532;2023-10-08T13:24:56;0.98;;;0.40;;
75311;SDS011;63906;55.686;37.532;2023-10-08T13:29:57;0.85;;;0.30;;
75311;SDS011;63906;55.686;37.532;2023-10-08T13:34:58;0.50;;;0.30;;
75311;SDS011;63906;55.686;37.532;2023-10-08T13:40:00;0.40;;;0.20;;
75311;SDS011;63906;55.686;37.532;2023-10-08T13:45:01;1.17;;;0.25;;
75311;SDS011;63906;55.686;37.532;2023-10-08T13:50:08;0.75;;;0.30;;
75311;SDS011;63906;55.686;37.532;2023-10-08T13:55:10;1.63;;;0.30;;
75311;SDS011;63906;55.686;37.532;2023-10-08T14:00:14;0.10;;;0.10;;
75311;SDS011;63906;55.686;37.532;2023-10-08T14:05:15;0.93;;;0.47;;
75311;SDS011;63906;55.686;37.532;2023-10-08T14:10:16;0.50;;;0.20;;
75311;SDS011;63906;55.686;37.532;2023-10-08T14:15:18;0.75;;;0.30;;
75311;SDS011;63906;55.686;37.532;2023-10-08T14:20:19;0.55;;;0.30;;
75311;SDS011;63906;55.686;37.532;2023-10-08T14:25:25;1.30;;;0.57;;
75311;SDS011;63906;55.686;37.532;2023-10-08T14:30:28;1.58;;;0.60;;
75311;SDS011;63906;55.686;37.532;2023-10-08T14:35:30;1.08;;;0.40;;
75311;SDS011;63906;55.686;37.532;2023-10-08T14:40:49;1.02;;;0.35;;
75311;SDS011;63906;55.686;37.532;2023-10-08T14:46:08;0.88;;;0.40;;
75311;SDS011;63906;55.686;37.532;2023-10-08T14:51:09;0.52;;;0.40;;
75311;SDS011;63906;55.686;37.532;2023-10-08T15:01:20;1.52;;;0.60;;
75311;SDS011;63906;55.686;37.532;2023-10-08T15:06:23;0.82;;;0.30;;
75311;SDS011;63906;55.686;37.532;2023-10-08T15:11:24;0.77;;;0.40;;
75311;SDS011;63906;55.686;37.532;2023-10-08T15:16:30;4.43;;;0.70;;
75311;SDS011;63906;55.686;37.532;2023-10-08T15:21:31;0.47;;;0.30;;
75311;SDS011;63906;55.686;37.532;2023-10-08T15:26:35;2.20;;;0.47;;
75311;SDS011;63906;55.686;37.532;2023-10-08T15:31:36;1.20;;;0.10;;
75311;SDS011;63906;55.686;37.532;2023-10-08T15:36:37;0.90;;;0.20;;
75311;SDS011;63906;55.686;37.532;2023-10-08T15:41:38;0.55;;;0.20;;
75311;SDS011;63906;55.686;37.532;2023-10-08T15:46:40;0.80;;;0.32;;
75311;SDS011;63906;55.686;37.532;2023-10-08T15:51:40;0.22;;;0.15;;
75311;SDS011;63906;55.686;37.532;2023-10-08T15:56:41;0.50;;;0.30;;
75311;SDS011;63906;55.686;37.532;2023-10-08T16:01:41;0.83;;;0.43;;
75311;SDS011;63906;55.686;37.532;2023-10-08T16:06:46;0.57;;;0.40;;
75311;SDS011;63906;55.686;37.532;2023-10-08T16:11:47;0.75;;;0.25;;
75311;SDS011;63906;55.686;37.532;2023-10-08T16:16:49;0.98;;;0.10;;
75311;SDS011;63906;55.686;37.532;2023-10-08T16:21:50;0.52;;;0.10;;
75311;SDS011;63906;55.686;37.532;2023-10-08T16:26:51;0.20;;;0.17;;
75311;SDS011;63906;55.686;37.532;2023-10-08T16:31:55;0.30;;;0.30;;
75311;SDS011;63906;55.686;37.532;2023-10-08T16:36:56;0.17;;;0.10;;
75311;SDS011;63906;55.686;37.532;2023-10-08T16:41:57;0.20;;;0.17;;
75311;SDS011;63906;55.686;37.532;2023-10-08T16:46:57;0.30;;;0.10;;
75311;SDS011;63906;55.686;37.532;2023-10-08T16:51:58;0.10;;;0.10;;
75311;SDS011;63906;55.686;37.532;2023-10-08T16:56:59;0.10;;;0.00;;
75311;SDS011;63906;55.686;37.532;2023-10-08T17:02:00;0.17;;;0.10;;
75311;SDS011;63906;55.686;37.532;2023-10-08T17:07:00;0.32;;;0.10;;
75311;SDS011;63906;55.686;37.532;2023-10-08T17:12:01;0.27;;;0.20;;
75311;SDS011;63906;55.686;37.532;2023-10-08T17:17:02;0.38;;;0.20;;
75311;SDS011;63906;55.686;37.532;2023-10-08T17:22:04;0.70;;;0.10;;
75311;SDS011;63906;55.686;37.532;2023-10-08T17:27:04;0.60;;;0.10;;
75311;SDS011;63906;55.686;37.532;2023-10-08T17:32:06;1.13;;;0.43;;
75311;SDS011;63906;55.686;37.532;2023-10-08T17:37:07;0.63;;;0.20;;
75311;SDS011;63906;55.686;37.532;2023-10-08T17:42:07;0.27;;;0.10;;
75311;SDS011;63906;55.686;37.532;2023-10-08T17:47:09;0.20;;;0.10;;
75311;SDS011;63906;55.686;37.532;2023-10-08T17:52:10;0.10;;;0.10;;
75311;SDS011;63906;55.686;37.532;2023-10-08T17:57:12;0.38;;;0.20;;
75311;SDS011;63906;55.686;37.532;2023-10-08T18:02:15;0.93;;;0.30;;
75311;SDS011;63906;55.686;37.532;2023-10-08T18:07:17;0.90;;;0.13;;
75311;SDS011;63906;55.686;37.532;2023-10-08T18:12:18;0.32;;;0.10;;
75311;SDS011;63906;55.686;37.532;2023-10-08T18:17:18;0.80;;;0.40;;
75311;SDS011;63906;55.686;37.532;2023-10-08T18:22:18;0.90;;;0.50;;
75311;SDS011;63906;55.686;37.532;2023-10-08T18:27:19;0.90;;;0.50;;
75311;SDS011;63906;55.686;37.532;2023-10-08T18:32:20;1.38;;;0.68;;
75311;SDS011;63906;55.686;37.532;2023-10-08T18:37:22;1.10;;;0.43;;
75311;SDS011;63906;55.686;37.532;2023-10-08T18:42:23;0.98;;;0.55;;
75311;SDS011;63906;55.686;37.532;2023-10-08T18:47:27;1.70;;;0.47;;
75311;SDS011;63906;55.686;37.532;2023-10-08T18:52:28;1.23;;;0.60;;
75311;SDS011;63906;55.686;37.532;2023-10-08T18:57:28;1.63;;;0.57;;
75311;SDS011;63906;55.686;37.532;2023-10-08T19:02:29;0.55;;;0.50;;
75311;SDS011;63906;55.686;37.532;2023-10-08T19:07:33;1.25;;;0.60;;
75311;SDS011;63906;55.686;37.532;2023-10-08T19:12:34;0.40;;;0.30;;
75311;SDS011;63906;55.686;37.532;2023-10-08T19:17:36;1.50;;;0.70;;
75311;SDS011;63906;55.686;37.532;2023-10-08T19:22:37;1.20;;;0.50;;
75311;SDS011;63906;55.686;37.532;2023-10-08T19:27:38;0.77;;;0.40;;
75311;SDS011;63906;55.686;37.532;2023-10-08T19:32:39;0.93;;;0.57;;
75311;SDS011;63906;55.686;37.532;2023-10-08T19:37:39;2.05;;;0.60;;
75311;SDS011;63906;55.686;37.532;2023-10-08T19:42:40;0.97;;;0.50;;
75311;SDS011;63906;55.686;37.532;2023-10-08T19:47:42;1.27;;;0.50;;
75311;SDS011;63906;55.686;37.532;2023-10-08T19:52:46;1.35;;;0.80;;
75311;SDS011;63906;55.686;37.532;2023-10-08T20:02:52;2.92;;;1.33;;
75311;SDS011;63906;55.686;37.532;2023-10-08T20:07:53;2.88;;;1.70;;
75311;SDS011;63906;55.686;37.532;2023-10-08T20:12:53;4.47;;;1.67;;
75311;SDS011;63906;55.686;37.532;2023-10-08T20:17:54;2.67;;;1.05;;
75311;SDS011;63906;55.686;37.532;2023-10-08T20:22:54;2.07;;;1.03;;
75311;SDS011;63906;55.686;37.532;2023-10-08T20:27:55;2.60;;;1.10;;
75311;SDS011;63906;55.686;37.532;2023-10-08T20:32:57;1.17;;;0.70;;
75311;SDS011;63906;55.686;37.532;2023-10-08T20:37:57;2.88;;;1.35;;
75311;SDS011;63906;55.686;37.532;2023-10-08T20:42:58;2.38;;;1.40;;
75311;SDS011;63906;55.686;37.532;2023-10-08T20:47:59;1.98;;;1.20;;
75311;SDS011;63906;55.686;37.532;2023-10-08T20:53:01;0.75;;;0.43;;
75311;SDS011;63906;55.686;37.532;2023-10-08T20:58:02;0.75;;;0.40;;
75311;SDS011;63906;55.686;37.532;2023-10-08T21:03:04;0.85;;;0.52;;
75311;SDS011;63906;55.686;37.532;2023-10-08T21:08:06;0.80;;;0.30;;
75311;SDS011;63906;55.686;37.532;2023-10-08T21:13:08;0.50;;;0.20;;
75311;SDS011;63906;55.686;37.532;2023-10-08T21:18:10;0.73;;;0.20;;
75311;SDS011;63906;55.686;37.532;2023-10-08T21:23:10;0.33;;;0.20;;
75311;SDS011;63906;55.686;37.532;2023-10-08T21:28:11;0.22;;;0.10;;
75311;SDS011;63906;55.686;37.532;2023-10-08T21:33:11;0.30;;;0.10;;
75311;SDS011;63906;55.686;37.532;2023-10-08T21:38:12;0.10;;;0.05;;
75311;SDS011;63906;55.686;37.532;2023-10-08T21:43:13;0.10;;;0.10;;
75311;SDS011;63906;55.686;37.532;2023-10-08T21:48:17;0.90;;;0.13;;
75311;SDS011;63906;55.686;37.532;2023-10-08T21:53:17;0.87;;;0.10;;
75311;SDS011;63906;55.686;37.532;2023-10-08T21:58:18;0.75;;;0.17;;
75311;SDS011;63906;55.686;37.532;2023-10-08T22:03:18;0.40;;;0.10;;
75311;SDS011;63906;55.686;37.532;2023-10-08T22:08:19;0.40;;;0.10;;
75311;SDS011;63906;55.686;37.532;2023-10-08T22:13:22;0.10;;;0.10;;
75311;SDS011;63906;55.686;37.532;2023-10-08T22:18:23;0.30;;;0.10;;
75311;SDS011;63906;55.686;37.532;2023-10-08T22:23:29;0.17;;;0.10;;
75311;SDS011;63906;55.686;37.532;2023-10-08T22:28:33;0.32;;;0.10;;
75311;SDS011;63906;55.686;37.532;2023-10-08T22:33:35;0.03;;;0.03;;
75311;SDS011;63906;55.686;37.532;2023-10-08T22:38:40;0.15;;;0.00;;
75311;SDS011;63906;55.686;37.532;2023-10-08T22:43:41;0.13;;;0.10;;
75311;SDS011;63906;55.686;37.532;2023-10-08T22:48:45;0.13;;;0.10;;
75311;SDS011;63906;55.686;37.532;2023-10-08T22:53:50;0.10;;;0.10;;
75311;SDS011;63906;55.686;37.532;2023-10-08T22:58:51;0.10;;;0.10;;
75311;SDS011;63906;55.686;37.532;2023-10-08T23:03:52;0.30;;;0.10;;
75311;SDS011;63906;55.686;37.532;2023-10-08T23:08:53;0.22;;;0.10;;
75311;SDS011;63906;55.686;37.532;2023-10-08T23:13:55;0.30;;;0.20;;
75311;SDS011;63906;55.686;37.532;2023-10-08T23:18:59;0.10;;;0.10;;
75311;SDS011;63906;55.686;37.532;2023-10-08T23:29:07;0.00;;;0.00;;
75311;SDS011;63906;55.686;37.532;2023-10-08T23:34:08;0.10;;;0.10;;
75311;SDS011;63906;55.686;37.532;2023-10-08T23:39:13;0.00;;;0.00;;
75311;SDS011;63906;55.686;37.532;2023-10-08T23:44:17;0.10;;;0.05;;
75311;SDS011;63906;55.686;37.532;2023-10-08T23:49:25;0.10;;;0.10;;
75311;SDS011;63906;55.686;37.532;2023-10-08T23:54:28;0.10;;;0.05;;
75311;SDS011;63906;55.686;37.532;2023-10-08T23:59:33;0.03;;;0.00;;
